Time;durP1;ratioP1;P1;durP2;ratioP2;P2;SDS_P1;SDS_P2;PMS_P1;PMS_P2;Temp;Humidity;BMP_temperature;BMP_pressure;BME280_temperature;BME280_humidity;BME280_pressure;Samples;Min_cycle;Max_cycle;Signal;HPM_P1;HPM_P2
2024/01/08 00:02:24;;;;;;;0.20;0.10;;;;;;;;;;4990857;28;20065;-86
2024/01/08 00:04:50;;;;;;;0.20;0.10;;;;;;;;;;4991617;28;20080;-83
2024/01/08 00:07:28;;;;;;;0.20;0.10;;;;;;;;;;5007170;28;20541;-88
2024/01/08 00:09:54;;;;;;;0.20;0.10;;;;;;;;;;4992922;28;20096;-84
2024/01/08 00:12:20;;;;;;;0.20;0.10;;;;;;;;;;5003522;28;20083;-86
2024/01/08 00:14:46;;;;;;;0.20;0.10;;;;;;;;;;5002948;28;20053;-86
2024/01/08 00:17:12;;;;;;;0.20;0.10;;;;;;;;;;4997453;28;20034;-87
2024/01/08 00:19:39;;;;;;;0.20;0.10;;;;;;;;;;4991180;28;20034;-84
2024/01/08 00:22:07;;;;;;;0.20;0.10;;;;;;;;;;4991157;28;20041;-86
2024/01/08 00:24:35;;;;;;;0.20;0.10;;;;;;;;;;5010091;28;20073;-83
2024/01/08 00:27:04;;;;;;;0.20;0.10;;;;;;;;;;4973516;28;20125;-87
2024/01/08 00:29:30;;;;;;;0.25;0.15;;;;;;;;;;4989971;28;20076;-82
2024/01/08 00:31:56;;;;;;;0.20;0.00;;;;;;;;;;4992064;28;20079;-86
2024/01/08 00:34:24;;;;;;;0.20;0.10;;;;;;;;;;4990665;28;20112;-86
2024/01/08 00:36:54;;;;;;;0.20;0.10;;;;;;;;;;4992785;28;20045;-86
2024/01/08 00:39:20;;;;;;;0.20;0.10;;;;;;;;;;5006929;28;20068;-86
2024/01/08 00:41:47;;;;;;;0.20;0.10;;;;;;;;;;4997825;28;20509;-85
2024/01/08 00:44:16;;;;;;;0.20;0.10;;;;;;;;;;4981213;28;20144;-86
2024/01/08 00:46:42;;;;;;;0.20;0.10;;;;;;;;;;4999904;28;20494;-85
2024/01/08 00:49:08;;;;;;;0.20;0.05;;;;;;;;;;4993556;28;20068;-85
2024/01/08 00:51:35;;;;;;;0.20;0.10;;;;;;;;;;5011164;28;20695;-85
2024/01/08 00:54:01;;;;;;;0.20;0.10;;;;;;;;;;4931670;28;20050;-85
2024/01/08 00:56:27;;;;;;;0.20;0.10;;;;;;;;;;4914288;28;20080;-83
2024/01/08 00:58:54;;;;;;;0.20;0.10;;;;;;;;;;4920093;28;20035;-83
2024/01/08 01:01:20;;;;;;;0.20;0.10;;;;;;;;;;5004184;28;20044;-84
2024/01/08 01:03:47;;;;;;;0.20;0.00;;;;;;;;;;5010033;28;20127;-85
2024/01/08 01:06:22;;;;;;;0.20;0.10;;;;;;;;;;4929083;28;20540;-88
2024/01/08 01:08:48;;;;;;;1.17;0.40;;;;;;;;;;4941551;28;20070;-83
2024/01/08 01:11:17;;;;;;;0.20;0.10;;;;;;;;;;4930612;28;20127;-88
2024/01/08 01:13:43;;;;;;;0.20;0.10;;;;;;;;;;4921944;28;20521;-84
2024/01/08 01:16:10;;;;;;;0.20;0.10;;;;;;;;;;4927842;28;20052;-85
2024/01/08 01:18:36;;;;;;;0.20;0.10;;;;;;;;;;4938320;28;20095;-84
2024/01/08 01:21:05;;;;;;;0.20;0.10;;;;;;;;;;5007548;28;20472;-85
2024/01/08 01:23:34;;;;;;;0.20;0.10;;;;;;;;;;4922973;28;20075;-85
2024/01/08 01:26:00;;;;;;;0.20;0.10;;;;;;;;;;4916343;28;20266;-87
2024/01/08 01:28:26;;;;;;;0.20;0.10;;;;;;;;;;4921683;28;20039;-86
2024/01/08 01:30:54;;;;;;;0.20;0.10;;;;;;;;;;4923473;28;20051;-83
2024/01/08 01:33:20;;;;;;;0.20;0.10;;;;;;;;;;4944822;28;20043;-86
2024/01/08 01:35:46;;;;;;;0.20;0.10;;;;;;;;;;4914245;28;20036;-87
2024/01/08 01:38:13;;;;;;;0.20;0.10;;;;;;;;;;4918227;28;20586;-85
2024/01/08 01:40:39;;;;;;;0.20;0.00;;;;;;;;;;4913323;28;20109;-84
2024/01/08 01:43:19;;;;;;;0.20;0.10;;;;;;;;;;4917193;28;20622;-88
2024/01/08 01:45:45;;;;;;;0.20;0.10;;;;;;;;;;4917742;28;20097;-83
2024/01/08 01:48:11;;;;;;;0.20;0.10;;;;;;;;;;4940595;28;20041;-87
2024/01/08 01:50:37;;;;;;;0.20;0.10;;;;;;;;;;5007780;28;20043;-85
2024/01/08 01:53:04;;;;;;;0.20;0.10;;;;;;;;;;4922577;28;20050;-84
2024/01/08 01:55:30;;;;;;;0.20;0.00;;;;;;;;;;4931146;28;20044;-85
2024/01/08 01:58:16;;;;;;;0.20;0.10;;;;;;;;;;5009695;28;20241;-87
2024/01/08 02:00:42;;;;;;;0.20;0.10;;;;;;;;;;4964730;28;20890;-85
2024/01/08 02:03:20;;;;;;;0.20;0.10;;;;;;;;;;4927329;28;20032;-86
2024/01/08 02:05:49;;;;;;;0.30;0.30;;;;;;;;;;5006244;28;20043;-87
2024/01/08 02:08:16;;;;;;;0.20;0.10;;;;;;;;;;4915308;28;20040;-87
2024/01/08 02:10:42;;;;;;;0.20;0.10;;;;;;;;;;4939113;28;20119;-86
2024/01/08 02:13:11;;;;;;;0.20;0.10;;;;;;;;;;4935301;28;20526;-87
2024/01/08 02:15:40;;;;;;;0.20;0.10;;;;;;;;;;4947173;28;20074;-83
2024/01/08 02:18:15;;;;;;;0.20;0.20;;;;;;;;;;4910068;28;20032;-87
2024/01/08 02:20:44;;;;;;;0.20;0.10;;;;;;;;;;4913051;28;20051;-85
2024/01/08 02:23:10;;;;;;;0.20;0.10;;;;;;;;;;4926661;28;20040;-86
2024/01/08 02:25:54;;;;;;;0.20;0.10;;;;;;;;;;4929129;28;20173;-85
2024/01/08 02:28:35;;;;;;;0.20;0.10;;;;;;;;;;4920288;28;20036;-86
2024/01/08 02:31:07;;;;;;;0.20;0.10;;;;;;;;;;4917573;28;20050;-85
2024/01/08 02:33:36;;;;;;;0.20;0.15;;;;;;;;;;4916983;28;20082;-86
2024/01/08 02:36:14;;;;;;;1.00;0.65;;;;;;;;;;4923739;28;20105;-85
2024/01/08 02:38:40;;;;;;;0.20;0.08;;;;;;;;;;4922402;28;20084;-85
2024/01/08 02:41:09;;;;;;;0.20;0.10;;;;;;;;;;4935315;28;20119;-86
2024/01/08 02:43:38;;;;;;;0.20;0.10;;;;;;;;;;4914833;28;20488;-87
2024/01/08 02:46:05;;;;;;;0.20;0.10;;;;;;;;;;5010806;28;20123;-85
2024/01/08 02:48:32;;;;;;;0.20;0.10;;;;;;;;;;4919826;28;20494;-85
2024/01/08 02:51:00;;;;;;;0.20;0.10;;;;;;;;;;4931992;28;20060;-85
2024/01/08 02:53:29;;;;;;;0.20;0.10;;;;;;;;;;4933818;28;20405;-86
2024/01/08 02:56:06;;;;;;;0.20;0.10;;;;;;;;;;4917724;28;20503;-85
2024/01/08 02:58:37;;;;;;;0.20;0.10;;;;;;;;;;5002963;28;20450;-87
2024/01/08 03:01:11;;;;;;;0.20;0.10;;;;;;;;;;4949580;28;20513;-85
2024/01/08 03:03:49;;;;;;;0.20;0.10;;;;;;;;;;4928784;28;20147;-84
2024/01/08 03:06:15;;;;;;;0.90;0.30;;;;;;;;;;4912300;28;20039;-86
2024/01/08 03:08:44;;;;;;;0.20;0.10;;;;;;;;;;4922563;28;20032;-85
2024/01/08 03:11:29;;;;;;;0.20;0.10;;;;;;;;;;4921285;28;20055;-86
2024/01/08 03:13:56;;;;;;;0.20;0.10;;;;;;;;;;4927082;28;20142;-86
2024/01/08 03:16:25;;;;;;;0.20;0.10;;;;;;;;;;4927917;28;20586;-85
2024/01/08 03:19:01;;;;;;;0.20;0.10;;;;;;;;;;4921177;28;20095;-86
2024/01/08 03:21:33;;;;;;;0.20;0.10;;;;;;;;;;4912909;28;20047;-86
2024/01/08 03:23:59;;;;;;;0.20;0.05;;;;;;;;;;4928009;28;20040;-88
2024/01/08 03:26:28;;;;;;;0.20;0.10;;;;;;;;;;4994639;28;20127;-87
2024/01/08 03:29:00;;;;;;;0.20;0.10;;;;;;;;;;4931916;28;20496;-88
2024/01/08 03:31:45;;;;;;;0.20;0.10;;;;;;;;;;4936381;28;20051;-86
2024/01/08 03:34:17;;;;;;;0.20;0.10;;;;;;;;;;4914611;28;20051;-85
2024/01/08 03:37:12;;;;;;;0.20;0.10;;;;;;;;;;4947777;28;20093;-86
2024/01/08 03:39:49;;;;;;;0.20;0.10;;;;;;;;;;4914295;28;20732;-86
2024/01/08 03:42:18;;;;;;;0.20;0.10;;;;;;;;;;4945335;28;20560;-85
2024/01/08 03:44:44;;;;;;;0.20;0.03;;;;;;;;;;4924391;28;20047;-85
2024/01/08 03:47:30;;;;;;;0.20;0.10;;;;;;;;;;4924085;28;20094;-86
2024/01/08 03:49:59;;;;;;;0.20;0.10;;;;;;;;;;5017846;28;20075;-87
2024/01/08 03:52:25;;;;;;;0.20;0.10;;;;;;;;;;4921421;28;20039;-85
2024/01/08 03:54:51;;;;;;;0.20;0.10;;;;;;;;;;4929832;28;20509;-86
2024/01/08 03:57:17;;;;;;;0.20;0.10;;;;;;;;;;4919923;28;20040;-87
2024/01/08 03:59:47;;;;;;;0.20;0.10;;;;;;;;;;4916721;28;20040;-86
2024/01/08 04:02:19;;;;;;;0.20;0.10;;;;;;;;;;4911974;28;20061;-85
2024/01/08 04:04:57;;;;;;;0.20;0.10;;;;;;;;;;4920997;28;20040;-87
2024/01/08 04:07:23;;;;;;;0.20;0.10;;;;;;;;;;4925179;28;20071;-85
2024/01/08 04:09:52;;;;;;;0.20;0.10;;;;;;;;;;4972270;23;20564;-87
2024/01/08 04:12:18;;;;;;;0.20;0.10;;;;;;;;;;5026682;28;20065;-85
2024/01/08 04:14:50;;;;;;;0.20;0.17;;;;;;;;;;4993540;28;20119;-85
2024/01/08 04:17:16;;;;;;;0.20;0.10;;;;;;;;;;4995489;28;20088;-84
2024/01/08 04:19:42;;;;;;;0.20;0.10;;;;;;;;;;5010948;28;20041;-85
2024/01/08 04:22:11;;;;;;;0.20;0.17;;;;;;;;;;5007751;28;20386;-85
2024/01/08 04:24:37;;;;;;;0.20;0.10;;;;;;;;;;5063465;23;20041;-86
2024/01/08 04:27:06;;;;;;;0.20;0.10;;;;;;;;;;5006706;28;20053;-88
2024/01/08 04:29:32;;;;;;;0.20;0.10;;;;;;;;;;4991537;28;20091;-83
2024/01/08 04:31:58;;;;;;;0.20;0.10;;;;;;;;;;5008557;28;20398;-86
2024/01/08 04:34:24;;;;;;;0.20;0.10;;;;;;;;;;4995829;28;20132;-87
2024/01/08 04:36:50;;;;;;;0.20;0.00;;;;;;;;;;4988825;28;20034;-85
2024/01/08 04:39:19;;;;;;;0.20;0.10;;;;;;;;;;5018583;28;20044;-88
2024/01/08 04:41:45;;;;;;;0.20;0.10;;;;;;;;;;5005781;28;20494;-87
2024/01/08 04:44:11;;;;;;;0.20;0.10;;;;;;;;;;4986897;28;20064;-86
2024/01/08 04:46:40;;;;;;;0.20;0.10;;;;;;;;;;5007065;28;20122;-86
2024/01/08 04:49:06;;;;;;;0.20;0.10;;;;;;;;;;4993450;28;20493;-86
2024/01/08 04:51:33;;;;;;;0.20;0.10;;;;;;;;;;4992672;28;20037;-85
2024/01/08 04:54:00;;;;;;;0.32;0.32;;;;;;;;;;4991335;28;20049;-86
2024/01/08 04:56:35;;;;;;;0.20;0.10;;;;;;;;;;4990039;28;20045;-85
2024/01/08 04:59:02;;;;;;;0.20;0.10;;;;;;;;;;5023360;28;20049;-86
2024/01/08 05:01:28;;;;;;;0.20;0.10;;;;;;;;;;5000878;28;20120;-85
2024/01/08 05:03:54;;;;;;;0.20;0.10;;;;;;;;;;4989341;28;20076;-83
2024/01/08 05:06:20;;;;;;;0.20;0.10;;;;;;;;;;4986336;28;20537;-87
2024/01/08 05:08:46;;;;;;;0.20;0.10;;;;;;;;;;5001434;28;20556;-86
2024/01/08 05:11:13;;;;;;;0.20;0.10;;;;;;;;;;4986125;28;20033;-87
2024/01/08 05:16:40;;;;;;;0.20;0.10;;;;;;;;;;4978702;28;20107;-86
2024/01/08 05:19:06;;;;;;;0.20;0.10;;;;;;;;;;4978020;28;20084;-87
2024/01/08 05:21:35;;;;;;;0.20;0.10;;;;;;;;;;4979082;28;20533;-87
2024/01/08 05:24:07;;;;;;;0.20;0.10;;;;;;;;;;4994732;28;20045;-86
2024/01/08 05:26:44;;;;;;;0.20;0.10;;;;;;;;;;4989046;28;20053;-85
2024/01/08 05:29:16;;;;;;;0.20;0.10;;;;;;;;;;4999718;28;20041;-86
2024/01/08 05:31:42;;;;;;;0.20;0.10;;;;;;;;;;5015112;28;20063;-86
2024/01/08 05:34:22;;;;;;;0.20;0.10;;;;;;;;;;4980266;28;20092;-90
2024/01/08 05:36:53;;;;;;;0.20;0.10;;;;;;;;;;4990508;28;20445;-86
2024/01/08 05:39:29;;;;;;;0.20;0.10;;;;;;;;;;4995738;28;20057;-88
2024/01/08 05:42:00;;;;;;;0.20;0.10;;;;;;;;;;4985355;28;20048;-86
2024/01/08 05:44:27;;;;;;;0.20;0.10;;;;;;;;;;5001480;28;20146;-87
2024/01/08 05:46:55;;;;;;;0.20;0.10;;;;;;;;;;5016778;28;20033;-88
2024/01/08 05:49:27;;;;;;;0.20;0.10;;;;;;;;;;4999353;28;20037;-86
2024/01/08 05:51:53;;;;;;;0.20;0.10;;;;;;;;;;4998959;28;20045;-89
2024/01/08 05:54:22;;;;;;;0.20;0.10;;;;;;;;;;4983273;28;20049;-88
2024/01/08 05:56:56;;;;;;;0.20;0.10;;;;;;;;;;5003439;28;20030;-89
2024/01/08 05:59:37;;;;;;;0.38;0.20;;;;;;;;;;4988505;28;20422;-87
2024/01/08 06:02:06;;;;;;;0.20;0.10;;;;;;;;;;4988713;28;20048;-89
2024/01/08 06:04:32;;;;;;;0.32;0.32;;;;;;;;;;5001904;28;20120;-86
2024/01/08 06:07:01;;;;;;;0.20;0.05;;;;;;;;;;4980594;28;20643;-87
2024/01/08 06:09:36;;;;;;;0.20;0.10;;;;;;;;;;5002724;28;20421;-89
2024/01/08 06:12:14;;;;;;;0.20;0.10;;;;;;;;;;4981394;28;20072;-90
2024/01/08 06:14:43;;;;;;;0.20;0.10;;;;;;;;;;4984048;28;20052;-86
2024/01/08 06:17:19;;;;;;;0.20;0.10;;;;;;;;;;4996081;28;20033;-89
2024/01/08 06:19:45;;;;;;;0.20;0.10;;;;;;;;;;5020996;28;20045;-89
2024/01/08 06:22:11;;;;;;;0.20;0.10;;;;;;;;;;4982985;28;20034;-89
2024/01/08 06:24:59;;;;;;;0.20;0.10;;;;;;;;;;4999512;28;20064;-89
2024/01/08 06:27:25;;;;;;;0.20;0.10;;;;;;;;;;4980991;28;20529;-87
2024/01/08 06:30:14;;;;;;;0.20;0.10;;;;;;;;;;4998496;28;20482;-88
2024/01/08 06:32:55;;;;;;;0.20;0.10;;;;;;;;;;4969992;28;20081;-85
2024/01/08 06:38:51;;;;;;;0.20;0.10;;;;;;;;;;4998414;28;20041;-88
2024/01/08 06:41:17;;;;;;;0.20;0.00;;;;;;;;;;4983615;28;21469;-88
2024/01/08 06:43:46;;;;;;;0.20;0.10;;;;;;;;;;4983191;28;20045;-85
2024/01/08 06:46:12;;;;;;;0.20;0.10;;;;;;;;;;5002367;28;20115;-87
2024/01/08 06:48:48;;;;;;;0.20;0.10;;;;;;;;;;4991796;28;20456;-87
2024/01/08 06:51:29;;;;;;;0.20;0.10;;;;;;;;;;4993856;28;20057;-88
2024/01/08 06:54:01;;;;;;;0.20;0.10;;;;;;;;;;4990734;28;20147;-87
2024/01/08 06:56:35;;;;;;;0.20;0.10;;;;;;;;;;4994450;28;20096;-87
2024/01/08 06:59:47;;;;;;;0.20;0.10;;;;;;;;;;5006435;28;20288;-88
2024/01/08 07:02:24;;;;;;;0.20;0.10;;;;;;;;;;5003406;28;20076;-89
2024/01/08 07:08:09;;;;;;;0.40;0.40;;;;;;;;;;4989882;28;20037;-88
2024/01/08 07:10:35;;;;;;;0.20;0.10;;;;;;;;;;5007931;28;20041;-87
2024/01/08 07:13:02;;;;;;;0.20;0.20;;;;;;;;;;4994569;28;20529;-90
2024/01/08 07:15:39;;;;;;;0.20;0.03;;;;;;;;;;4994024;28;20414;-88
2024/01/08 07:18:05;;;;;;;0.20;0.10;;;;;;;;;;4994922;28;20045;-88
2024/01/08 07:20:37;;;;;;;0.20;0.10;;;;;;;;;;5008464;28;20034;-87
2024/01/08 07:23:04;;;;;;;0.20;0.10;;;;;;;;;;4991160;28;20349;-88
2024/01/08 07:25:41;;;;;;;0.20;0.10;;;;;;;;;;4993897;28;20050;-87
2024/01/08 07:28:08;;;;;;;0.20;0.10;;;;;;;;;;4997304;28;20052;-86
2024/01/08 07:30:37;;;;;;;0.20;0.10;;;;;;;;;;5029695;28;20071;-88
2024/01/08 07:33:33;;;;;;;0.20;0.10;;;;;;;;;;4988684;28;20053;-87
2024/01/08 07:36:03;;;;;;;0.20;0.08;;;;;;;;;;4993682;28;20045;-93
2024/01/08 07:38:32;;;;;;;0.20;0.10;;;;;;;;;;4992219;28;20048;-87
2024/01/08 07:41:13;;;;;;;0.20;0.10;;;;;;;;;;4993125;28;20060;-87
2024/01/08 07:43:45;;;;;;;0.32;0.17;;;;;;;;;;5008198;28;20042;-89
2024/01/08 07:46:23;;;;;;;0.20;0.10;;;;;;;;;;4990520;28;20045;-88
2024/01/08 07:48:56;;;;;;;0.20;0.10;;;;;;;;;;4991244;28;20050;-87
2024/01/08 07:51:39;;;;;;;0.20;0.10;;;;;;;;;;4992712;28;20082;-88
2024/01/08 07:54:18;;;;;;;0.20;0.10;;;;;;;;;;5025357;28;20045;-86
2024/01/08 07:56:47;;;;;;;0.20;0.10;;;;;;;;;;5010467;28;20030;-87
2024/01/08 07:59:16;;;;;;;0.20;0.03;;;;;;;;;;4994539;28;20081;-87
2024/01/08 08:01:43;;;;;;;0.20;0.10;;;;;;;;;;5003427;28;20041;-87
2024/01/08 08:04:09;;;;;;;0.20;0.10;;;;;;;;;;4990848;28;20448;-86
2024/01/08 08:09:51;;;;;;;0.20;0.10;;;;;;;;;;5008050;28;20045;-87
2024/01/08 08:12:34;;;;;;;0.20;0.10;;;;;;;;;;5011907;28;20045;-88
2024/01/08 08:15:22;;;;;;;0.20;0.10;;;;;;;;;;5001912;28;20057;-86
2024/01/08 08:17:58;;;;;;;0.20;0.10;;;;;;;;;;4988803;28;20033;-85
2024/01/08 08:20:31;;;;;;;0.20;0.10;;;;;;;;;;5025727;28;20544;-91
2024/01/08 08:23:00;;;;;;;0.20;0.10;;;;;;;;;;5008525;28;20119;-88
2024/01/08 08:25:33;;;;;;;0.20;0.10;;;;;;;;;;5004834;28;20048;-87
2024/01/08 08:28:05;;;;;;;0.20;0.10;;;;;;;;;;5008642;28;20049;-86
2024/01/08 08:30:42;;;;;;;0.20;0.10;;;;;;;;;;5013126;28;20060;-86
2024/01/08 08:33:18;;;;;;;0.20;0.10;;;;;;;;;;4993665;28;20037;-88
2024/01/08 08:35:50;;;;;;;0.20;0.10;;;;;;;;;;4989553;28;20196;-89
2024/01/08 08:38:19;;;;;;;0.20;0.10;;;;;;;;;;4992052;28;20041;-87
2024/01/08 08:40:58;;;;;;;0.20;0.10;;;;;;;;;;4992469;28;20413;-87
2024/01/08 08:43:30;;;;;;;0.20;0.10;;;;;;;;;;5022617;28;20116;-85
2024/01/08 08:46:02;;;;;;;0.20;0.10;;;;;;;;;;4991873;28;20045;-85
2024/01/08 08:48:28;;;;;;;0.20;0.10;;;;;;;;;;4990879;28;20041;-86
2024/01/08 08:50:57;;;;;;;0.20;0.10;;;;;;;;;;4992522;28;20075;-86
2024/01/08 08:53:52;;;;;;;0.20;0.10;;;;;;;;;;5006248;28;20073;-86
2024/01/08 08:56:27;;;;;;;0.20;0.10;;;;;;;;;;4992050;28;20070;-86
2024/01/08 08:59:08;;;;;;;0.20;0.10;;;;;;;;;;4991968;28;20099;-86
2024/01/08 09:01:44;;;;;;;0.20;0.10;;;;;;;;;;4991508;28;20398;-87
2024/01/08 09:04:10;;;;;;;0.20;0.10;;;;;;;;;;4995349;28;20037;-86
2024/01/08 09:06:47;;;;;;;0.20;0.10;;;;;;;;;;4993516;28;20037;-87
2024/01/08 09:09:21;;;;;;;0.20;0.10;;;;;;;;;;4989838;28;20049;-88
2024/01/08 09:11:56;;;;;;;0.20;0.10;;;;;;;;;;4986159;28;20045;-85
2024/01/08 09:14:37;;;;;;;0.20;0.10;;;;;;;;;;4990793;28;20045;-86
2024/01/08 09:17:06;;;;;;;0.20;0.10;;;;;;;;;;5013168;28;20459;-87
2024/01/08 09:19:51;;;;;;;0.20;0.10;;;;;;;;;;4989334;28;20445;-88
2024/01/08 09:22:25;;;;;;;0.20;0.10;;;;;;;;;;4988730;28;20537;-86
2024/01/08 09:24:57;;;;;;;0.20;0.00;;;;;;;;;;5008133;28;20099;-86
2024/01/08 09:27:39;;;;;;;0.20;0.10;;;;;;;;;;4987903;28;20037;-88
2024/01/08 09:30:11;;;;;;;0.20;0.10;;;;;;;;;;5002672;28;20046;-85
2024/01/08 09:32:37;;;;;;;0.20;0.10;;;;;;;;;;4982914;28;20033;-85
2024/01/08 09:35:18;;;;;;;0.20;0.10;;;;;;;;;;5013613;28;20401;-86
2024/01/08 09:40:59;;;;;;;0.20;0.20;;;;;;;;;;5007627;28;20264;-89
2024/01/08 09:43:28;;;;;;;;;;;;;;;;;;5022084;28;20386;-88
2024/01/08 09:46:01;;;;;;;0.20;0.10;;;;;;;;;;5008590;28;19925;-87
2024/01/08 09:48:27;;;;;;;0.20;0.10;;;;;;;;;;4984954;28;20522;-87
2024/01/08 09:51:18;;;;;;;;;;;;;;;;;;;;;
2024/01/08 09:53:50;;;;;;;0.20;0.10;;;;;;;;;;5005846;28;20049;-86
2024/01/08 09:56:23;;;;;;;0.20;0.10;;;;;;;;;;4981624;28;20042;-86
2024/01/08 09:59:16;;;;;;;0.20;0.10;;;;;;;;;;4989009;28;20053;-88
2024/01/08 10:01:56;;;;;;;0.20;0.10;;;;;;;;;;5016345;28;20025;-86
2024/01/08 10:04:29;;;;;;;0.20;0.10;;;;;;;;;;5004344;28;20056;-84
2024/01/08 10:07:29;;;;;;;0.75;0.32;;;;;;;;;;4992139;28;20298;-85
2024/01/08 10:10:29;;;;;;;;;;;;;;;;;;;;;
2024/01/08 10:13:23;;;;;;;0.80;0.80;;;;;;;;;;5008652;28;20116;-85
2024/01/08 10:15:51;;;;;;;0.20;0.10;;;;;;;;;;4991524;28;20041;-88
2024/01/08 10:18:44;;;;;;;0.20;0.10;;;;;;;;;;4990672;28;20133;-86
2024/01/08 10:21:31;;;;;;;0.20;0.10;;;;;;;;;;4985422;28;20038;-85
2024/01/08 10:24:11;;;;;;;0.20;0.10;;;;;;;;;;4992277;28;20066;-85
2024/01/08 10:26:41;;;;;;;0.20;0.10;;;;;;;;;;4946079;23;20044;-85
2024/01/08 10:29:17;;;;;;;0.20;0.10;;;;;;;;;;4912731;28;20040;-85
2024/01/08 10:31:46;;;;;;;0.20;0.10;;;;;;;;;;4908174;28;20038;-84
2024/01/08 10:34:12;;;;;;;0.20;0.10;;;;;;;;;;4929908;29;20094;-86
2024/01/08 10:36:42;;;;;;;0.22;0.20;;;;;;;;;;4899392;28;20040;-85
2024/01/08 10:39:09;;;;;;;0.20;0.00;;;;;;;;;;4891567;29;20055;-84
2024/01/08 10:41:41;;;;;;;0.20;0.10;;;;;;;;;;4894096;29;20064;-85
2024/01/08 10:44:10;;;;;;;0.20;0.10;;;;;;;;;;4906086;28;20071;-83
2024/01/08 10:46:41;;;;;;;0.20;0.10;;;;;;;;;;4879725;29;20553;-83
2024/01/08 10:49:14;;;;;;;0.20;0.10;;;;;;;;;;4899208;28;20075;-85
2024/01/08 10:51:44;;;;;;;0.20;0.10;;;;;;;;;;4894771;28;20488;-86
2024/01/08 10:54:12;;;;;;;0.20;0.10;;;;;;;;;;4893235;29;20051;-83
2024/01/08 10:56:51;;;;;;;0.20;0.20;;;;;;;;;;4876098;28;20047;-85
2024/01/08 10:59:22;;;;;;;0.20;0.10;;;;;;;;;;4897391;29;20090;-85
2024/01/08 11:01:49;;;;;;;0.20;0.10;;;;;;;;;;4877550;28;20207;-85
2024/01/08 11:04:22;;;;;;;0.20;0.10;;;;;;;;;;4891629;28;20060;-86
2024/01/08 11:06:49;;;;;;;0.20;0.10;;;;;;;;;;4891029;29;20056;-83
2024/01/08 11:09:25;;;;;;;0.20;0.10;;;;;;;;;;4875861;29;20079;-86
2024/01/08 11:11:51;;;;;;;0.20;0.10;;;;;;;;;;4882911;28;20069;-84
2024/01/08 11:14:23;;;;;;;0.20;0.10;;;;;;;;;;4874797;28;20048;-83
2024/01/08 11:16:50;;;;;;;0.20;0.10;;;;;;;;;;4892507;28;20536;-85
2024/01/08 11:19:28;;;;;;;0.20;0.08;;;;;;;;;;4894419;28;20067;-86
2024/01/08 11:21:56;;;;;;;0.20;0.10;;;;;;;;;;4892816;29;20045;-85
2024/01/08 11:24:25;;;;;;;0.20;0.10;;;;;;;;;;4896913;28;20033;-88
2024/01/08 11:26:54;;;;;;;0.30;0.20;;;;;;;;;;4975232;28;20043;-86
2024/01/08 11:29:24;;;;;;;0.20;0.08;;;;;;;;;;5002252;28;20045;-85
2024/01/08 11:32:20;;;;;;;0.20;0.08;;;;;;;;;;4974761;28;20059;-85
2024/01/08 11:34:49;;;;;;;0.20;0.03;;;;;;;;;;4980375;28;20142;-86
2024/01/08 11:37:32;;;;;;;0.20;0.20;;;;;;;;;;4998358;28;20384;-84
2024/01/08 11:40:23;;;;;;;0.20;0.10;;;;;;;;;;4981645;28;20031;-85
2024/01/08 11:42:50;;;;;;;0.20;0.10;;;;;;;;;;4982843;28;20583;-84
2024/01/08 11:45:19;;;;;;;0.20;0.10;;;;;;;;;;5004966;28;20038;-85
2024/01/08 11:47:51;;;;;;;0.20;0.10;;;;;;;;;;4992413;28;20054;-84
2024/01/08 11:50:17;;;;;;;0.20;0.10;;;;;;;;;;4959221;28;20525;-87
2024/01/08 11:52:44;;;;;;;0.20;0.10;;;;;;;;;;5004157;28;20414;-86
2024/01/08 11:55:16;;;;;;;0.20;0.10;;;;;;;;;;4967496;28;20053;-87
2024/01/08 11:57:42;;;;;;;0.20;0.10;;;;;;;;;;4963767;28;20088;-84
2024/01/08 12:00:15;;;;;;;0.20;0.05;;;;;;;;;;4966306;28;20034;-86
2024/01/08 12:02:50;;;;;;;0.20;0.10;;;;;;;;;;4977694;28;20046;-84
2024/01/08 12:05:19;;;;;;;0.30;0.30;;;;;;;;;;4972810;28;20576;-86
2024/01/08 12:07:51;;;;;;;0.20;0.10;;;;;;;;;;4965718;28;20073;-84
2024/01/08 12:10:20;;;;;;;0.20;0.10;;;;;;;;;;4962391;28;20040;-86
2024/01/08 12:12:46;;;;;;;0.20;0.10;;;;;;;;;;4955431;28;20274;-85
2024/01/08 12:15:27;;;;;;;0.20;0.08;;;;;;;;;;4968901;28;22013;-84
2024/01/08 12:17:53;;;;;;;0.20;0.00;;;;;;;;;;5011068;28;20042;-85
2024/01/08 12:20:22;;;;;;;0.20;0.10;;;;;;;;;;4977539;28;20045;-85
2024/01/08 12:22:48;;;;;;;0.20;0.10;;;;;;;;;;4953443;28;20037;-84
2024/01/08 12:25:14;;;;;;;0.20;0.10;;;;;;;;;;4954653;28;20047;-88
2024/01/08 12:27:40;;;;;;;0.20;0.10;;;;;;;;;;4956146;28;20075;-86
2024/01/08 12:30:08;;;;;;;0.20;0.10;;;;;;;;;;4934179;28;20044;-85
2024/01/08 12:32:34;;;;;;;0.20;0.10;;;;;;;;;;4955717;28;20132;-85
2024/01/08 12:35:04;;;;;;;0.52;0.52;;;;;;;;;;4968936;28;20080;-87
2024/01/08 12:37:33;;;;;;;0.20;0.10;;;;;;;;;;4967781;28;20048;-85
2024/01/08 12:40:13;;;;;;;0.20;0.10;;;;;;;;;;4956843;28;20079;-84
2024/01/08 12:42:41;;;;;;;0.20;0.10;;;;;;;;;;4956580;28;20048;-83
2024/01/08 12:45:10;;;;;;;0.20;0.10;;;;;;;;;;4950739;28;20467;-88
2024/01/08 12:47:41;;;;;;;0.20;0.10;;;;;;;;;;4979872;28;20040;-86
2024/01/08 12:50:10;;;;;;;0.30;0.30;;;;;;;;;;4972736;28;20052;-86
2024/01/08 12:52:42;;;;;;;0.20;0.10;;;;;;;;;;4964968;28;20312;-87
2024/01/08 12:55:09;;;;;;;0.20;0.10;;;;;;;;;;4951043;28;20048;-85
2024/01/08 12:57:37;;;;;;;0.20;0.20;;;;;;;;;;4968391;28;20040;-86
2024/01/08 13:00:04;;;;;;;0.20;0.10;;;;;;;;;;4971999;28;20080;-88
2024/01/08 13:02:38;;;;;;;0.20;0.10;;;;;;;;;;4954143;28;20044;-85
2024/01/08 13:05:05;;;;;;;0.40;0.40;;;;;;;;;;4973375;28;20036;-84
2024/01/08 13:07:37;;;;;;;0.30;0.30;;;;;;;;;;4960924;28;20505;-86
2024/01/08 13:10:06;;;;;;;0.30;0.30;;;;;;;;;;4977888;28;20036;-88
2024/01/08 13:12:40;;;;;;;0.20;0.10;;;;;;;;;;4976044;28;20051;-88
2024/01/08 13:15:07;;;;;;;0.20;0.10;;;;;;;;;;4968348;28;20040;-86
2024/01/08 13:17:33;;;;;;;0.20;0.00;;;;;;;;;;4956386;28;20048;-85
2024/01/08 13:20:08;;;;;;;0.20;0.10;;;;;;;;;;4959913;28;20652;-85
2024/01/08 13:22:34;;;;;;;0.20;0.10;;;;;;;;;;4958601;28;20075;-85
2024/01/08 13:25:02;;;;;;;0.20;0.10;;;;;;;;;;4963540;28;20044;-85
2024/01/08 13:27:30;;;;;;;0.20;0.10;;;;;;;;;;5010255;28;20497;-85
2024/01/08 13:29:56;;;;;;;0.20;0.10;;;;;;;;;;4997157;28;20030;-87
2024/01/08 13:32:25;;;;;;;0.20;0.10;;;;;;;;;;4976725;28;20034;-87
2024/01/08 13:34:51;;;;;;;0.20;0.10;;;;;;;;;;4979381;28;20034;-84
2024/01/08 13:37:26;;;;;;;0.20;0.10;;;;;;;;;;4989054;28;20042;-87
2024/01/08 13:39:55;;;;;;;0.20;0.00;;;;;;;;;;4995672;28;20038;-85
2024/01/08 13:42:29;;;;;;;0.20;0.10;;;;;;;;;;4990631;28;20071;-87
2024/01/08 13:44:55;;;;;;;0.20;0.10;;;;;;;;;;5007028;28;20045;-85
2024/01/08 13:47:21;;;;;;;0.20;0.10;;;;;;;;;;4973733;28;20038;-85
2024/01/08 13:49:47;;;;;;;0.20;0.10;;;;;;;;;;5009649;28;20072;-85
2024/01/08 13:52:28;;;;;;;0.20;0.10;;;;;;;;;;4980687;28;20038;-87
2024/01/08 13:55:09;;;;;;;0.20;0.10;;;;;;;;;;4987276;28;20538;-82
2024/01/08 13:57:35;;;;;;;0.65;0.47;;;;;;;;;;5012763;28;20132;-85
2024/01/08 14:00:01;;;;;;;0.20;0.10;;;;;;;;;;4980049;28;20490;-85
2024/01/08 14:02:29;;;;;;;0.20;0.00;;;;;;;;;;4982046;28;20504;-86
2024/01/08 14:04:58;;;;;;;0.20;0.10;;;;;;;;;;5001257;28;20125;-84
2024/01/08 14:07:24;;;;;;;0.20;0.10;;;;;;;;;;4977196;28;20038;-85
2024/01/08 14:09:53;;;;;;;0.20;0.10;;;;;;;;;;4996247;28;20394;-85
2024/01/08 14:12:23;;;;;;;0.28;0.25;;;;;;;;;;4983727;28;20038;-84
2024/01/08 14:14:55;;;;;;;0.20;0.10;;;;;;;;;;4994698;28;20510;-85
2024/01/08 14:17:21;;;;;;;0.20;0.10;;;;;;;;;;4994134;28;20129;-87
2024/01/08 14:19:47;;;;;;;0.20;0.10;;;;;;;;;;4977626;28;20100;-87
2024/01/08 14:22:13;;;;;;;0.20;0.10;;;;;;;;;;4981288;28;20041;-86
2024/01/08 14:24:40;;;;;;;0.20;0.00;;;;;;;;;;4999182;28;20045;-85
2024/01/08 14:27:06;;;;;;;0.20;0.10;;;;;;;;;;4992585;28;20176;-86
2024/01/08 14:29:32;;;;;;;0.20;0.10;;;;;;;;;;4996316;28;20123;-85
2024/01/08 14:31:59;;;;;;;0.20;0.10;;;;;;;;;;4981594;28;20068;-86
2024/01/08 14:34:25;;;;;;;0.20;0.10;;;;;;;;;;4980073;28;20049;-84
2024/01/08 14:36:54;;;;;;;0.20;0.10;;;;;;;;;;4996348;28;20053;-86
2024/01/08 14:39:37;;;;;;;0.20;0.10;;;;;;;;;;4991393;28;20054;-85
2024/01/08 14:42:03;;;;;;;;;;;;;;;;;;4982245;28;20390;-85
2024/01/08 14:44:30;;;;;;;0.20;0.10;;;;;;;;;;5013033;28;19957;-86
2024/01/08 14:47:01;;;;;;;0.20;0.10;;;;;;;;;;4997904;28;20481;-84
2024/01/08 14:49:27;;;;;;;0.20;0.10;;;;;;;;;;4997474;28;20084;-86
2024/01/08 14:51:53;;;;;;;0.77;0.20;;;;;;;;;;4978196;28;20045;-84
2024/01/08 14:54:26;;;;;;;0.20;0.00;;;;;;;;;;4978426;28;20049;-87
2024/01/08 14:57:14;;;;;;;;;;;;;;;;;;4994169;28;20073;-86
2024/01/08 14:59:51;;;;;;;0.68;0.47;;;;;;;;;;4980151;28;19917;-84
2024/01/08 15:02:17;;;;;;;0.20;0.10;;;;;;;;;;5008058;28;20049;-86
2024/01/08 15:05:02;;;;;;;0.20;0.10;;;;;;;;;;4975915;28;20073;-86
2024/01/08 15:07:58;;;;;;;0.20;0.10;;;;;;;;;;5006117;28;20042;-85
2024/01/08 15:10:45;;;;;;;0.20;0.10;;;;;;;;;;4993021;28;20060;-85
2024/01/08 15:13:15;;;;;;;0.20;0.10;;;;;;;;;;4992846;28;20034;-87
2024/01/08 15:15:46;;;;;;;0.22;0.15;;;;;;;;;;5007002;28;20038;-84
2024/01/08 15:18:12;;;;;;;0.20;0.10;;;;;;;;;;4980363;28;20524;-86
2024/01/08 15:20:38;;;;;;;0.20;0.10;;;;;;;;;;4994826;28;20038;-86
2024/01/08 15:23:25;;;;;;;0.20;0.10;;;;;;;;;;4995555;28;20041;-86
2024/01/08 15:25:51;;;;;;;0.20;0.10;;;;;;;;;;4993638;28;20088;-86
2024/01/08 15:28:17;;;;;;;0.20;0.10;;;;;;;;;;4993274;28;20050;-82